Windsor Park, Mississippi
Current Conditions -  °F | °C
As of 9:58 AM on Saturday 22 Nov 2014 (Local Time) from KBIX Reporting Station
Clear Clear  
Wind Chill: 66°   Ceiling: Unl
Heat Index: 66°   Visibility: 10mi
Dew Point: 51°   Wind: 8mph
Humidity: 57%   Direction: 90°E
Pressure: 30.24"   Gusts: NA
Location:  30.418°N, 88.7558°W
Report Text: KBIX 221558Z AUTO 09007KT 10SM CLR 19/11 A3024 RMK AO2 SLP243 T01910105
Loading
Personal Weather Stations






























Interactive Weather Map New forecast layout! Learn more

10-Day Weather Forecast

Advertisements
Track Severe Weather on mobile